Seattle, Washington
Traffic Map
Current Weather Conditions
Seattle, Washington
Broken Clouds
Broken Clouds
43°
Feels Like: 36°
Wind Chill: 36° Ceiling: 9000
Heat Index: 43° Visibility: 10mi
Dew Point: 39° Wind: 15mph
Humidity: 86% Direction: 190° (S)
Pressure: 29.82in Gusts: 25mph
Raw Report DataKBFI 251553Z 19013G22KT 10SM SCT020 BKN090 BKN110 06/04 A2982 RMK AO2 SLP096 T00610039
Traffic Incident Summary
Active as of:
Severity:
Category:
InformationThere was an issue retrieving the traffic information for this location. Please try a different location or try again shortly.
Advertisements